Portada
METAR-TAF:

METAR-TAF

Aeroports :

Vilhena, Rondônia, Brasil

latitud: 12-42S, longitud: 060-06W, altitud: 612 m

Observació

L'informe es va fer fa 1 hora i 42 minuts, a les 23:00 UTC
Vent 5 kt del Sud
Temperatura 25°C
Humitat 69%
Pressió 1016 hPa
Visibilitat 10 km o més
sense núvols per sota de 1500 mi sense presència de cumulonimbus.

METAR: SBVH 162300Z 18005KT CAVOK 25/19 Q1016

Hora: 20:42 (00:42 UTC)

Pronòstic

L'informe es va fer fa 2 hores i 57 minuts, a les 21:45 UTC
Pronòstic vàlid del 17 a les 00 UTC al 17 a les 12 UTC
Vent 5 kt del Est
Visibilitat 10 km o més
sense núvols per sota de 1500 mi sense presència de cumulonimbus.
Evolucionant progressivament
l' 17 a les 00 UTC al 17 a les 02 UTC
Vent 5 kt del Oest

TAF: SBVH 162145Z 1700/1712 09005KT CAVOK TX26/1700Z TN21/1711Z BECMG 1700/1702 28005KT RMK PHC

Observacions i pronòstics meteorològics de més de 4000 aeroports (METAR i TAF).

Les estacions disponibles són els punts grocs i vermells al mapa.

Posi el ratolí al punt desitjat per veure el nom de l'estació.

Feu clic per veure les observacions i els pronòstics meteorològics.

Per canviar el mapa: feu clic els botons verds amb una creu de color negre per apropar; al botó verd amb un guió per allunyar la imatge; o en les fletxes verdes per a mapes adjacents.


METAR-TAF: